sensor_id;sensor_type;location;lat;lon;timestamp;P1;durP1;ratioP1;P2;durP2;ratioP2
54145;SDS011;65909;49.422;7.738;2023-02-03T00:02:18;10.18;;;2.80;;
54145;SDS011;65909;49.422;7.738;2023-02-03T00:04:44;6.38;;;2.83;;
54145;SDS011;65909;49.422;7.738;2023-02-03T00:07:10;7.63;;;2.88;;
54145;SDS011;65909;49.422;7.738;2023-02-03T00:09:37;5.25;;;2.75;;
54145;SDS011;65909;49.422;7.738;2023-02-03T00:12:03;9.50;;;3.58;;
54145;SDS011;65909;49.422;7.738;2023-02-03T00:14:28;5.60;;;2.95;;
54145;SDS011;65909;49.422;7.738;2023-02-03T00:16:53;3.72;;;2.22;;
54145;SDS011;65909;49.422;7.738;2023-02-03T00:19:19;5.65;;;2.90;;
54145;SDS011;65909;49.422;7.738;2023-02-03T00:21:44;8.50;;;2.95;;
54145;SDS011;65909;49.422;7.738;2023-02-03T00:24:10;5.80;;;2.55;;
54145;SDS011;65909;49.422;7.738;2023-02-03T00:26:39;4.35;;;2.15;;
54145;SDS011;65909;49.422;7.738;2023-02-03T00:29:06;6.68;;;2.50;;
54145;SDS011;65909;49.422;7.738;2023-02-03T00:31:33;6.70;;;2.65;;
54145;SDS011;65909;49.422;7.738;2023-02-03T00:33:58;3.33;;;2.70;;
54145;SDS011;65909;49.422;7.738;2023-02-03T00:36:24;6.72;;;2.33;;
54145;SDS011;65909;49.422;7.738;2023-02-03T00:38:50;5.35;;;2.20;;
54145;SDS011;65909;49.422;7.738;2023-02-03T00:41:15;5.35;;;2.35;;
54145;SDS011;65909;49.422;7.738;2023-02-03T00:43:41;4.28;;;2.38;;
54145;SDS011;65909;49.422;7.738;2023-02-03T00:46:06;4.90;;;2.38;;
54145;SDS011;65909;49.422;7.738;2023-02-03T00:48:32;6.70;;;2.63;;
54145;SDS011;65909;49.422;7.738;2023-02-03T00:50:57;6.45;;;3.47;;
54145;SDS011;65909;49.422;7.738;2023-02-03T00:53:23;3.38;;;2.50;;
54145;SDS011;65909;49.422;7.738;2023-02-03T00:55:48;4.85;;;2.40;;
54145;SDS011;65909;49.422;7.738;2023-02-03T00:58:13;8.27;;;2.20;;
54145;SDS011;65909;49.422;7.738;2023-02-03T01:00:39;6.45;;;2.38;;
54145;SDS011;65909;49.422;7.738;2023-02-03T01:03:04;5.32;;;2.42;;
54145;SDS011;65909;49.422;7.738;2023-02-03T01:05:30;4.70;;;2.38;;
54145;SDS011;65909;49.422;7.738;2023-02-03T01:07:55;6.72;;;2.67;;
54145;SDS011;65909;49.422;7.738;2023-02-03T01:10:20;4.78;;;2.20;;
54145;SDS011;65909;49.422;7.738;2023-02-03T01:12:46;3.92;;;2.05;;
54145;SDS011;65909;49.422;7.738;2023-02-03T01:15:11;6.15;;;2.63;;
54145;SDS011;65909;49.422;7.738;2023-02-03T01:17:36;6.63;;;3.33;;
54145;SDS011;65909;49.422;7.738;2023-02-03T01:20:02;5.35;;;2.35;;
54145;SDS011;65909;49.422;7.738;2023-02-03T01:22:28;5.43;;;2.25;;
54145;SDS011;65909;49.422;7.738;2023-02-03T01:24:54;4.45;;;2.45;;
54145;SDS011;65909;49.422;7.738;2023-02-03T01:27:20;4.25;;;2.25;;
54145;SDS011;65909;49.422;7.738;2023-02-03T01:29:45;3.28;;;2.10;;
54145;SDS011;65909;49.422;7.738;2023-02-03T01:32:11;3.63;;;3.25;;
54145;SDS011;65909;49.422;7.738;2023-02-03T01:34:36;3.83;;;2.35;;
54145;SDS011;65909;49.422;7.738;2023-02-03T01:37:01;7.55;;;2.97;;
54145;SDS011;65909;49.422;7.738;2023-02-03T01:39:27;5.43;;;2.50;;
54145;SDS011;65909;49.422;7.738;2023-02-03T01:41:53;4.07;;;1.88;;
54145;SDS011;65909;49.422;7.738;2023-02-03T01:50:22;5.63;;;2.72;;
54145;SDS011;65909;49.422;7.738;2023-02-03T01:52:58;4.25;;;2.50;;
54145;SDS011;65909;49.422;7.738;2023-02-03T01:55:27;4.95;;;2.38;;
54145;SDS011;65909;49.422;7.738;2023-02-03T01:58:02;2.17;;;1.63;;
54145;SDS011;65909;49.422;7.738;2023-02-03T02:00:32;5.95;;;2.40;;
54145;SDS011;65909;49.422;7.738;2023-02-03T02:03:05;4.93;;;2.50;;
54145;SDS011;65909;49.422;7.738;2023-02-03T02:05:34;4.20;;;2.10;;
54145;SDS011;65909;49.422;7.738;2023-02-03T02:08:05;3.15;;;1.73;;
54145;SDS011;65909;49.422;7.738;2023-02-03T02:10:32;4.35;;;2.13;;
54145;SDS011;65909;49.422;7.738;2023-02-03T02:12:59;3.70;;;2.15;;
54145;SDS011;65909;49.422;7.738;2023-02-03T02:15:48;6.30;;;2.25;;
54145;SDS011;65909;49.422;7.738;2023-02-03T02:24:28;4.93;;;2.30;;
54145;SDS011;65909;49.422;7.738;2023-02-03T02:26:59;3.67;;;2.03;;
54145;SDS011;65909;49.422;7.738;2023-02-03T02:29:44;4.80;;;2.53;;
54145;SDS011;65909;49.422;7.738;2023-02-03T02:40:14;3.78;;;1.80;;
54145;SDS011;65909;49.422;7.738;2023-02-03T02:42:59;3.28;;;2.35;;
54145;SDS011;65909;49.422;7.738;2023-02-03T02:46:18;4.38;;;3.10;;
54145;SDS011;65909;49.422;7.738;2023-02-03T02:48:32;2.75;;;2.15;;
54145;SDS011;65909;49.422;7.738;2023-02-03T02:51:04;2.70;;;1.95;;
54145;SDS011;65909;49.422;7.738;2023-02-03T02:53:33;3.55;;;2.30;;
54145;SDS011;65909;49.422;7.738;2023-02-03T02:56:02;2.40;;;2.10;;
54145;SDS011;65909;49.422;7.738;2023-02-03T02:58:31;6.18;;;2.08;;
54145;SDS011;65909;49.422;7.738;2023-02-03T03:01:01;4.13;;;2.10;;
54145;SDS011;65909;49.422;7.738;2023-02-03T03:03:28;2.65;;;1.75;;
54145;SDS011;65909;49.422;7.738;2023-02-03T03:05:57;3.58;;;2.17;;
54145;SDS011;65909;49.422;7.738;2023-02-03T03:08:36;2.38;;;1.77;;
54145;SDS011;65909;49.422;7.738;2023-02-03T03:11:06;2.55;;;1.90;;
54145;SDS011;65909;49.422;7.738;2023-02-03T03:13:33;3.78;;;2.13;;
54145;SDS011;65909;49.422;7.738;2023-02-03T03:16:02;3.80;;;2.08;;
54145;SDS011;65909;49.422;7.738;2023-02-03T03:18:41;4.93;;;2.08;;
54145;SDS011;65909;49.422;7.738;2023-02-03T03:21:12;3.28;;;1.88;;
54145;SDS011;65909;49.422;7.738;2023-02-03T03:23:44;6.65;;;2.47;;
54145;SDS011;65909;49.422;7.738;2023-02-03T03:26:19;5.82;;;2.35;;
54145;SDS011;65909;49.422;7.738;2023-02-03T03:28:56;4.82;;;2.17;;
54145;SDS011;65909;49.422;7.738;2023-02-03T03:31:30;3.45;;;2.40;;
54145;SDS011;65909;49.422;7.738;2023-02-03T03:33:56;4.38;;;2.10;;
54145;SDS011;65909;49.422;7.738;2023-02-03T03:36:23;2.67;;;2.30;;
54145;SDS011;65909;49.422;7.738;2023-02-03T03:38:56;4.60;;;2.45;;
54145;SDS011;65909;49.422;7.738;2023-02-03T03:44:02;3.63;;;1.92;;
54145;SDS011;65909;49.422;7.738;2023-02-03T03:46:37;2.35;;;2.08;;
54145;SDS011;65909;49.422;7.738;2023-02-03T03:49:08;2.05;;;1.85;;
54145;SDS011;65909;49.422;7.738;2023-02-03T03:51:39;2.95;;;1.75;;
54145;SDS011;65909;49.422;7.738;2023-02-03T03:54:11;3.88;;;1.90;;
54145;SDS011;65909;49.422;7.738;2023-02-03T03:56:47;2.15;;;1.75;;
54145;SDS011;65909;49.422;7.738;2023-02-03T03:59:17;2.78;;;1.63;;
54145;SDS011;65909;49.422;7.738;2023-02-03T04:01:46;2.28;;;1.90;;
54145;SDS011;65909;49.422;7.738;2023-02-03T04:04:13;2.38;;;1.52;;
54145;SDS011;65909;49.422;7.738;2023-02-03T04:06:39;1.30;;;1.20;;
54145;SDS011;65909;49.422;7.738;2023-02-03T04:09:05;2.10;;;1.83;;
54145;SDS011;65909;49.422;7.738;2023-02-03T04:11:31;2.78;;;1.65;;
54145;SDS011;65909;49.422;7.738;2023-02-03T04:14:15;2.20;;;1.50;;
54145;SDS011;65909;49.422;7.738;2023-02-03T04:16:40;1.90;;;1.70;;
54145;SDS011;65909;49.422;7.738;2023-02-03T04:19:05;3.70;;;2.00;;
54145;SDS011;65909;49.422;7.738;2023-02-03T04:21:31;1.75;;;1.38;;
54145;SDS011;65909;49.422;7.738;2023-02-03T04:23:56;3.55;;;1.95;;
54145;SDS011;65909;49.422;7.738;2023-02-03T04:26:22;1.95;;;1.73;;
54145;SDS011;65909;49.422;7.738;2023-02-03T04:28:47;2.53;;;1.60;;
54145;SDS011;65909;49.422;7.738;2023-02-03T04:31:13;1.65;;;1.50;;
54145;SDS011;65909;49.422;7.738;2023-02-03T04:33:38;2.28;;;1.70;;
54145;SDS011;65909;49.422;7.738;2023-02-03T04:36:04;4.45;;;2.13;;
54145;SDS011;65909;49.422;7.738;2023-02-03T04:38:29;2.35;;;1.73;;
54145;SDS011;65909;49.422;7.738;2023-02-03T04:40:54;2.10;;;1.83;;
54145;SDS011;65909;49.422;7.738;2023-02-03T04:43:20;2.92;;;1.88;;
54145;SDS011;65909;49.422;7.738;2023-02-03T04:45:45;3.45;;;1.90;;
54145;SDS011;65909;49.422;7.738;2023-02-03T04:48:10;4.05;;;2.28;;
54145;SDS011;65909;49.422;7.738;2023-02-03T04:50:36;3.35;;;2.00;;
54145;SDS011;65909;49.422;7.738;2023-02-03T04:53:01;4.60;;;2.05;;
54145;SDS011;65909;49.422;7.738;2023-02-03T04:55:27;2.13;;;1.92;;
54145;SDS011;65909;49.422;7.738;2023-02-03T04:57:58;2.88;;;2.20;;
54145;SDS011;65909;49.422;7.738;2023-02-03T05:00:25;3.60;;;3.10;;
54145;SDS011;65909;49.422;7.738;2023-02-03T05:02:51;3.45;;;2.60;;
54145;SDS011;65909;49.422;7.738;2023-02-03T05:05:16;5.55;;;2.88;;
54145;SDS011;65909;49.422;7.738;2023-02-03T05:07:42;8.55;;;2.50;;
54145;SDS011;65909;49.422;7.738;2023-02-03T05:10:08;3.50;;;2.30;;
54145;SDS011;65909;49.422;7.738;2023-02-03T05:12:33;7.85;;;2.78;;
54145;SDS011;65909;49.422;7.738;2023-02-03T05:14:59;3.08;;;2.33;;
54145;SDS011;65909;49.422;7.738;2023-02-03T05:17:24;2.60;;;2.20;;
54145;SDS011;65909;49.422;7.738;2023-02-03T05:19:50;2.42;;;2.22;;
54145;SDS011;65909;49.422;7.738;2023-02-03T05:22:15;3.35;;;2.55;;
54145;SDS011;65909;49.422;7.738;2023-02-03T05:24:40;2.17;;;1.98;;
54145;SDS011;65909;49.422;7.738;2023-02-03T05:27:06;4.65;;;2.58;;
54145;SDS011;65909;49.422;7.738;2023-02-03T05:29:31;3.28;;;2.17;;
54145;SDS011;65909;49.422;7.738;2023-02-03T05:31:56;3.20;;;2.45;;
54145;SDS011;65909;49.422;7.738;2023-02-03T05:34:22;4.07;;;2.30;;
54145;SDS011;65909;49.422;7.738;2023-02-03T05:36:47;3.45;;;2.20;;
54145;SDS011;65909;49.422;7.738;2023-02-03T05:39:12;2.50;;;2.00;;
54145;SDS011;65909;49.422;7.738;2023-02-03T05:41:38;3.40;;;2.28;;
54145;SDS011;65909;49.422;7.738;2023-02-03T05:44:22;4.20;;;2.65;;
54145;SDS011;65909;49.422;7.738;2023-02-03T05:46:52;6.13;;;2.40;;
54145;SDS011;65909;49.422;7.738;2023-02-03T05:49:18;3.30;;;1.98;;
54145;SDS011;65909;49.422;7.738;2023-02-03T05:51:44;3.75;;;2.47;;
54145;SDS011;65909;49.422;7.738;2023-02-03T05:54:10;5.70;;;2.40;;
54145;SDS011;65909;49.422;7.738;2023-02-03T05:56:36;4.40;;;1.98;;
54145;SDS011;65909;49.422;7.738;2023-02-03T05:59:02;3.60;;;2.10;;
54145;SDS011;65909;49.422;7.738;2023-02-03T06:01:27;4.75;;;2.10;;
54145;SDS011;65909;49.422;7.738;2023-02-03T06:03:53;4.80;;;2.30;;
54145;SDS011;65909;49.422;7.738;2023-02-03T06:06:18;5.70;;;2.20;;
54145;SDS011;65909;49.422;7.738;2023-02-03T06:08:44;4.65;;;2.13;;
54145;SDS011;65909;49.422;7.738;2023-02-03T06:11:09;6.72;;;2.00;;
54145;SDS011;65909;49.422;7.738;2023-02-03T06:13:35;2.47;;;2.05;;
54145;SDS011;65909;49.422;7.738;2023-02-03T06:16:00;2.22;;;1.98;;
54145;SDS011;65909;49.422;7.738;2023-02-03T06:18:26;2.28;;;1.88;;
54145;SDS011;65909;49.422;7.738;2023-02-03T06:20:52;2.80;;;2.25;;
54145;SDS011;65909;49.422;7.738;2023-02-03T06:23:17;3.22;;;2.00;;
54145;SDS011;65909;49.422;7.738;2023-02-03T06:25:43;6.25;;;2.17;;
54145;SDS011;65909;49.422;7.738;2023-02-03T06:28:09;4.60;;;1.67;;
54145;SDS011;65909;49.422;7.738;2023-02-03T06:30:35;3.25;;;2.15;;
54145;SDS011;65909;49.422;7.738;2023-02-03T06:33:00;2.30;;;2.10;;
54145;SDS011;65909;49.422;7.738;2023-02-03T06:35:26;4.15;;;1.98;;
54145;SDS011;65909;49.422;7.738;2023-02-03T06:37:51;3.55;;;2.50;;
54145;SDS011;65909;49.422;7.738;2023-02-03T06:40:17;2.78;;;2.17;;
54145;SDS011;65909;49.422;7.738;2023-02-03T06:42:45;3.05;;;1.73;;
54145;SDS011;65909;49.422;7.738;2023-02-03T06:45:12;2.75;;;2.20;;
54145;SDS011;65909;49.422;7.738;2023-02-03T06:47:40;4.65;;;2.42;;
54145;SDS011;65909;49.422;7.738;2023-02-03T06:50:07;2.58;;;2.22;;
54145;SDS011;65909;49.422;7.738;2023-02-03T06:52:34;2.83;;;2.00;;
54145;SDS011;65909;49.422;7.738;2023-02-03T06:55:00;2.55;;;2.10;;
54145;SDS011;65909;49.422;7.738;2023-02-03T06:57:25;2.85;;;1.98;;
54145;SDS011;65909;49.422;7.738;2023-02-03T06:59:50;2.47;;;2.00;;
54145;SDS011;65909;49.422;7.738;2023-02-03T07:02:16;2.17;;;1.98;;
54145;SDS011;65909;49.422;7.738;2023-02-03T07:04:41;2.42;;;2.10;;
54145;SDS011;65909;49.422;7.738;2023-02-03T07:07:09;5.00;;;3.00;;
54145;SDS011;65909;49.422;7.738;2023-02-03T07:09:35;3.78;;;2.10;;
54145;SDS011;65909;49.422;7.738;2023-02-03T07:12:00;5.00;;;2.55;;
54145;SDS011;65909;49.422;7.738;2023-02-03T07:14:26;3.97;;;2.05;;
54145;SDS011;65909;49.422;7.738;2023-02-03T07:16:51;3.03;;;2.15;;
54145;SDS011;65909;49.422;7.738;2023-02-03T07:19:18;2.85;;;1.90;;
54145;SDS011;65909;49.422;7.738;2023-02-03T07:21:43;5.85;;;2.95;;
54145;SDS011;65909;49.422;7.738;2023-02-03T07:24:08;4.65;;;1.90;;
54145;SDS011;65909;49.422;7.738;2023-02-03T07:26:34;4.07;;;1.95;;
54145;SDS011;65909;49.422;7.738;2023-02-03T07:28:59;3.58;;;1.75;;
54145;SDS011;65909;49.422;7.738;2023-02-03T07:31:25;4.90;;;2.65;;
54145;SDS011;65909;49.422;7.738;2023-02-03T07:33:50;5.03;;;2.25;;
54145;SDS011;65909;49.422;7.738;2023-02-03T07:36:15;5.75;;;2.78;;
54145;SDS011;65909;49.422;7.738;2023-02-03T07:38:41;4.13;;;2.40;;
54145;SDS011;65909;49.422;7.738;2023-02-03T07:41:06;2.10;;;1.90;;
54145;SDS011;65909;49.422;7.738;2023-02-03T07:43:32;3.72;;;2.00;;
54145;SDS011;65909;49.422;7.738;2023-02-03T07:45:57;2.35;;;2.15;;
54145;SDS011;65909;49.422;7.738;2023-02-03T07:48:23;3.50;;;1.83;;
54145;SDS011;65909;49.422;7.738;2023-02-03T07:50:49;3.30;;;2.17;;
54145;SDS011;65909;49.422;7.738;2023-02-03T07:53:15;3.13;;;2.00;;
54145;SDS011;65909;49.422;7.738;2023-02-03T07:55:41;3.92;;;2.10;;
54145;SDS011;65909;49.422;7.738;2023-02-03T07:58:06;3.33;;;2.22;;
54145;SDS011;65909;49.422;7.738;2023-02-03T08:00:32;2.60;;;1.98;;
54145;SDS011;65909;49.422;7.738;2023-02-03T08:02:57;5.68;;;2.15;;
54145;SDS011;65909;49.422;7.738;2023-02-03T08:05:23;2.42;;;2.03;;
54145;SDS011;65909;49.422;7.738;2023-02-03T08:07:48;5.72;;;2.10;;
54145;SDS011;65909;49.422;7.738;2023-02-03T08:10:14;4.35;;;2.38;;
54145;SDS011;65909;49.422;7.738;2023-02-03T08:12:40;3.47;;;1.83;;
54145;SDS011;65909;49.422;7.738;2023-02-03T08:15:07;1.98;;;1.65;;
54145;SDS011;65909;49.422;7.738;2023-02-03T08:17:33;4.43;;;1.80;;
54145;SDS011;65909;49.422;7.738;2023-02-03T08:19:58;4.18;;;2.00;;
54145;SDS011;65909;49.422;7.738;2023-02-03T08:22:24;7.53;;;2.20;;
54145;SDS011;65909;49.422;7.738;2023-02-03T08:24:50;2.47;;;2.25;;
54145;SDS011;65909;49.422;7.738;2023-02-03T08:27:17;1.75;;;1.40;;
54145;SDS011;65909;49.422;7.738;2023-02-03T08:29:46;3.75;;;2.00;;
54145;SDS011;65909;49.422;7.738;2023-02-03T08:32:13;4.00;;;1.63;;
54145;SDS011;65909;49.422;7.738;2023-02-03T08:34:40;2.20;;;1.58;;
54145;SDS011;65909;49.422;7.738;2023-02-03T08:37:06;2.38;;;1.80;;
54145;SDS011;65909;49.422;7.738;2023-02-03T08:39:34;3.83;;;1.70;;
54145;SDS011;65909;49.422;7.738;2023-02-03T08:41:59;2.40;;;1.40;;
54145;SDS011;65909;49.422;7.738;2023-02-03T08:44:27;5.50;;;1.80;;
54145;SDS011;65909;49.422;7.738;2023-02-03T08:46:53;1.70;;;1.42;;
54145;SDS011;65909;49.422;7.738;2023-02-03T08:49:19;4.88;;;1.70;;
54145;SDS011;65909;49.422;7.738;2023-02-03T08:51:45;5.50;;;2.05;;
54145;SDS011;65909;49.422;7.738;2023-02-03T08:54:11;2.80;;;1.63;;
54145;SDS011;65909;49.422;7.738;2023-02-03T08:56:37;3.45;;;1.33;;
54145;SDS011;65909;49.422;7.738;2023-02-03T08:59:06;3.53;;;1.52;;
54145;SDS011;65909;49.422;7.738;2023-02-03T09:01:31;4.90;;;1.80;;
54145;SDS011;65909;49.422;7.738;2023-02-03T09:03:57;2.28;;;1.40;;
54145;SDS011;65909;49.422;7.738;2023-02-03T09:06:25;3.00;;;1.60;;
54145;SDS011;65909;49.422;7.738;2023-02-03T09:08:53;1.98;;;1.40;;
54145;SDS011;65909;49.422;7.738;2023-02-03T09:11:18;1.40;;;1.00;;
54145;SDS011;65909;49.422;7.738;2023-02-03T09:13:44;5.68;;;1.40;;
54145;SDS011;65909;49.422;7.738;2023-02-03T09:16:10;5.03;;;1.70;;
54145;SDS011;65909;49.422;7.738;2023-02-03T09:18:37;4.18;;;1.40;;
54145;SDS011;65909;49.422;7.738;2023-02-03T09:21:03;1.95;;;1.30;;
54145;SDS011;65909;49.422;7.738;2023-02-03T09:23:31;3.53;;;1.20;;
54145;SDS011;65909;49.422;7.738;2023-02-03T09:26:02;2.53;;;1.00;;
54145;SDS011;65909;49.422;7.738;2023-02-03T09:28:29;3.08;;;1.30;;
54145;SDS011;65909;49.422;7.738;2023-02-03T09:30:58;3.45;;;1.40;;
54145;SDS011;65909;49.422;7.738;2023-02-03T09:33:27;3.28;;;1.60;;
54145;SDS011;65909;49.422;7.738;2023-02-03T09:35:53;2.00;;;1.20;;
54145;SDS011;65909;49.422;7.738;2023-02-03T09:38:19;3.20;;;1.13;;
54145;SDS011;65909;49.422;7.738;2023-02-03T09:40:45;3.78;;;1.40;;
54145;SDS011;65909;49.422;7.738;2023-02-03T09:43:23;2.63;;;1.35;;
54145;SDS011;65909;49.422;7.738;2023-02-03T09:46:18;3.90;;;1.42;;
54145;SDS011;65909;49.422;7.738;2023-02-03T09:48:47;3.50;;;1.10;;
54145;SDS011;65909;49.422;7.738;2023-02-03T09:51:47;1.83;;;1.38;;
54145;SDS011;65909;49.422;7.738;2023-02-03T09:54:52;3.75;;;1.33;;
54145;SDS011;65909;49.422;7.738;2023-02-03T09:57:19;1.40;;;1.13;;
54145;SDS011;65909;49.422;7.738;2023-02-03T09:59:46;4.40;;;1.58;;
54145;SDS011;65909;49.422;7.738;2023-02-03T10:02:16;4.75;;;1.27;;
54145;SDS011;65909;49.422;7.738;2023-02-03T10:07:45;1.13;;;0.93;;
54145;SDS011;65909;49.422;7.738;2023-02-03T10:18:41;1.50;;;1.20;;
54145;SDS011;65909;49.422;7.738;2023-02-03T10:21:12;1.63;;;1.33;;
54145;SDS011;65909;49.422;7.738;2023-02-03T10:24:01;2.33;;;1.20;;
54145;SDS011;65909;49.422;7.738;2023-02-03T10:26:30;3.72;;;1.45;;
54145;SDS011;65909;49.422;7.738;2023-02-03T10:28:56;2.42;;;1.50;;
54145;SDS011;65909;49.422;7.738;2023-02-03T10:31:26;6.50;;;1.40;;
54145;SDS011;65909;49.422;7.738;2023-02-03T10:33:59;5.03;;;2.13;;
54145;SDS011;65909;49.422;7.738;2023-02-03T10:39:26;1.98;;;1.13;;
54145;SDS011;65909;49.422;7.738;2023-02-03T10:41:56;2.22;;;1.30;;
54145;SDS011;65909;49.422;7.738;2023-02-03T10:44:23;1.65;;;1.33;;
54145;SDS011;65909;49.422;7.738;2023-02-03T10:46:55;2.30;;;1.33;;
54145;SDS011;65909;49.422;7.738;2023-02-03T10:49:21;2.63;;;1.45;;
54145;SDS011;65909;49.422;7.738;2023-02-03T10:51:50;2.13;;;1.23;;
54145;SDS011;65909;49.422;7.738;2023-02-03T10:54:27;3.90;;;1.38;;
54145;SDS011;65909;49.422;7.738;2023-02-03T10:56:56;2.42;;;1.50;;
54145;SDS011;65909;49.422;7.738;2023-02-03T10:59:30;3.42;;;1.30;;
54145;SDS011;65909;49.422;7.738;2023-02-03T11:01:59;2.13;;;1.35;;
54145;SDS011;65909;49.422;7.738;2023-02-03T11:04:31;2.22;;;1.15;;
54145;SDS011;65909;49.422;7.738;2023-02-03T11:09:34;2.25;;;1.30;;
54145;SDS011;65909;49.422;7.738;2023-02-03T11:12:04;4.97;;;1.38;;
54145;SDS011;65909;49.422;7.738;2023-02-03T11:17:08;2.50;;;1.20;;
54145;SDS011;65909;49.422;7.738;2023-02-03T11:19:41;1.60;;;1.10;;
54145;SDS011;65909;49.422;7.738;2023-02-03T11:22:12;3.13;;;1.70;;
54145;SDS011;65909;49.422;7.738;2023-02-03T11:24:51;1.90;;;1.20;;
54145;SDS011;65909;49.422;7.738;2023-02-03T11:27:17;4.53;;;1.27;;
54145;SDS011;65909;49.422;7.738;2023-02-03T11:29:45;4.55;;;1.30;;
54145;SDS011;65909;49.422;7.738;2023-02-03T11:32:32;3.20;;;1.23;;
54145;SDS011;65909;49.422;7.738;2023-02-03T11:35:01;2.92;;;1.10;;
54145;SDS011;65909;49.422;7.738;2023-02-03T11:42:43;7.15;;;1.33;;
54145;SDS011;65909;49.422;7.738;2023-02-03T11:47:48;5.72;;;1.23;;
54145;SDS011;65909;49.422;7.738;2023-02-03T12:04:01;2.03;;;1.00;;
54145;SDS011;65909;49.422;7.738;2023-02-03T12:09:52;2.70;;;1.10;;
54145;SDS011;65909;49.422;7.738;2023-02-03T12:12:50;2.17;;;1.10;;
54145;SDS011;65909;49.422;7.738;2023-02-03T12:18:18;2.17;;;0.97;;
54145;SDS011;65909;49.422;7.738;2023-02-03T12:23:29;2.33;;;1.30;;
54145;SDS011;65909;49.422;7.738;2023-02-03T12:29:10;4.35;;;1.17;;
54145;SDS011;65909;49.422;7.738;2023-02-03T12:35:11;1.90;;;1.10;;
54145;SDS011;65909;49.422;7.738;2023-02-03T12:37:45;2.63;;;1.10;;
54145;SDS011;65909;49.422;7.738;2023-02-03T12:40:16;2.60;;;1.33;;
54145;SDS011;65909;49.422;7.738;2023-02-03T12:42:49;1.92;;;1.20;;
54145;SDS011;65909;49.422;7.738;2023-02-03T12:45:28;2.25;;;1.20;;
54145;SDS011;65909;49.422;7.738;2023-02-03T12:48:05;1.85;;;1.38;;
54145;SDS011;65909;49.422;7.738;2023-02-03T12:50:40;3.40;;;1.40;;
54145;SDS011;65909;49.422;7.738;2023-02-03T13:01:19;1.83;;;1.10;;
54145;SDS011;65909;49.422;7.738;2023-02-03T13:06:29;4.70;;;1.73;;
54145;SDS011;65909;49.422;7.738;2023-02-03T13:14:32;4.20;;;1.90;;
54145;SDS011;65909;49.422;7.738;2023-02-03T13:19:57;2.30;;;1.60;;
54145;SDS011;65909;49.422;7.738;2023-02-03T13:22:27;4.82;;;1.67;;
54145;SDS011;65909;49.422;7.738;2023-02-03T13:25:16;2.22;;;1.55;;
54145;SDS011;65909;49.422;7.738;2023-02-03T13:41:37;2.63;;;1.70;;
54145;SDS011;65909;49.422;7.738;2023-02-03T13:44:11;2.67;;;1.60;;
54145;SDS011;65909;49.422;7.738;2023-02-03T13:46:40;4.70;;;1.80;;
54145;SDS011;65909;49.422;7.738;2023-02-03T13:49:06;3.42;;;1.83;;
54145;SDS011;65909;49.422;7.738;2023-02-03T13:51:42;4.10;;;1.73;;
54145;SDS011;65909;49.422;7.738;2023-02-03T13:54:13;4.20;;;1.75;;
54145;SDS011;65909;49.422;7.738;2023-02-03T13:57:46;2.67;;;1.73;;
54145;SDS011;65909;49.422;7.738;2023-02-03T13:59:46;4.97;;;1.60;;
54145;SDS011;65909;49.422;7.738;2023-02-03T14:07:34;2.40;;;1.67;;
54145;SDS011;65909;49.422;7.738;2023-02-03T14:12:36;3.08;;;1.95;;
54145;SDS011;65909;49.422;7.738;2023-02-03T14:20:39;3.00;;;1.63;;
54145;SDS011;65909;49.422;7.738;2023-02-03T14:23:12;3.05;;;1.27;;
54145;SDS011;65909;49.422;7.738;2023-02-03T14:25:42;2.10;;;1.60;;
54145;SDS011;65909;49.422;7.738;2023-02-03T14:28:13;2.33;;;1.40;;
54145;SDS011;65909;49.422;7.738;2023-02-03T14:47:14;3.35;;;1.90;;
54145;SDS011;65909;49.422;7.738;2023-02-03T14:50:10;3.88;;;1.63;;
54145;SDS011;65909;49.422;7.738;2023-02-03T14:53:05;5.53;;;1.83;;
54145;SDS011;65909;49.422;7.738;2023-02-03T14:58:27;4.53;;;1.85;;
54145;SDS011;65909;49.422;7.738;2023-02-03T15:00:56;2.97;;;1.58;;
54145;SDS011;65909;49.422;7.738;2023-02-03T15:03:22;4.00;;;1.80;;
54145;SDS011;65909;49.422;7.738;2023-02-03T15:08:36;4.50;;;1.90;;
54145;SDS011;65909;49.422;7.738;2023-02-03T15:11:23;2.20;;;1.60;;
54145;SDS011;65909;49.422;7.738;2023-02-03T15:13:51;3.95;;;2.10;;
54145;SDS011;65909;49.422;7.738;2023-02-03T15:16:19;4.45;;;2.08;;
54145;SDS011;65909;49.422;7.738;2023-02-03T15:18:51;3.45;;;2.13;;
54145;SDS011;65909;49.422;7.738;2023-02-03T15:21:18;3.63;;;1.98;;
54145;SDS011;65909;49.422;7.738;2023-02-03T15:23:45;3.60;;;2.45;;
54145;SDS011;65909;49.422;7.738;2023-02-03T15:28:55;2.88;;;2.10;;
54145;SDS011;65909;49.422;7.738;2023-02-03T15:31:29;5.70;;;2.83;;
54145;SDS011;65909;49.422;7.738;2023-02-03T15:33:59;5.05;;;2.60;;
54145;SDS011;65909;49.422;7.738;2023-02-03T15:36:47;4.20;;;2.40;;
54145;SDS011;65909;49.422;7.738;2023-02-03T15:41:57;6.05;;;3.20;;
54145;SDS011;65909;49.422;7.738;2023-02-03T15:46:58;5.50;;;3.10;;
54145;SDS011;65909;49.422;7.738;2023-02-03T15:49:37;6.90;;;3.20;;
54145;SDS011;65909;49.422;7.738;2023-02-03T15:52:07;5.40;;;3.17;;
54145;SDS011;65909;49.422;7.738;2023-02-03T15:54:39;7.88;;;3.90;;
54145;SDS011;65909;49.422;7.738;2023-02-03T15:57:17;5.07;;;3.70;;
54145;SDS011;65909;49.422;7.738;2023-02-03T15:59:51;4.00;;;3.35;;
54145;SDS011;65909;49.422;7.738;2023-02-03T16:02:30;8.35;;;3.72;;
54145;SDS011;65909;49.422;7.738;2023-02-03T16:05:03;4.28;;;2.85;;
54145;SDS011;65909;49.422;7.738;2023-02-03T16:07:35;5.50;;;3.03;;
54145;SDS011;65909;49.422;7.738;2023-02-03T16:10:00;5.45;;;3.35;;
54145;SDS011;65909;49.422;7.738;2023-02-03T16:12:29;4.68;;;3.00;;
54145;SDS011;65909;49.422;7.738;2023-02-03T16:14:58;6.65;;;3.40;;
54145;SDS011;65909;49.422;7.738;2023-02-03T16:17:28;8.07;;;3.38;;
54145;SDS011;65909;49.422;7.738;2023-02-03T16:22:37;7.38;;;3.58;;
54145;SDS011;65909;49.422;7.738;2023-02-03T16:27:43;6.63;;;3.42;;
54145;SDS011;65909;49.422;7.738;2023-02-03T16:33:01;7.55;;;3.67;;
54145;SDS011;65909;49.422;7.738;2023-02-03T16:35:54;4.95;;;3.15;;
54145;SDS011;65909;49.422;7.738;2023-02-03T16:38:48;6.20;;;3.50;;
54145;SDS011;65909;49.422;7.738;2023-02-03T16:41:33;5.35;;;3.53;;
54145;SDS011;65909;49.422;7.738;2023-02-03T16:44:17;4.63;;;3.53;;
54145;SDS011;65909;49.422;7.738;2023-02-03T16:47:01;6.43;;;3.42;;
54145;SDS011;65909;49.422;7.738;2023-02-03T16:49:45;6.18;;;3.20;;
54145;SDS011;65909;49.422;7.738;2023-02-03T16:52:30;6.35;;;3.35;;
54145;SDS011;65909;49.422;7.738;2023-02-03T16:54:56;8.20;;;3.00;;
54145;SDS011;65909;49.422;7.738;2023-02-03T16:57:21;5.40;;;3.17;;
54145;SDS011;65909;49.422;7.738;2023-02-03T16:59:47;5.18;;;3.15;;
54145;SDS011;65909;49.422;7.738;2023-02-03T17:02:12;6.57;;;3.40;;
54145;SDS011;65909;49.422;7.738;2023-02-03T17:04:38;6.43;;;2.88;;
54145;SDS011;65909;49.422;7.738;2023-02-03T17:07:03;4.65;;;2.90;;
54145;SDS011;65909;49.422;7.738;2023-02-03T17:09:29;4.78;;;3.53;;
54145;SDS011;65909;49.422;7.738;2023-02-03T17:11:59;4.88;;;3.10;;
54145;SDS011;65909;49.422;7.738;2023-02-03T17:14:27;5.75;;;3.08;;
54145;SDS011;65909;49.422;7.738;2023-02-03T17:16:53;5.72;;;2.97;;
54145;SDS011;65909;49.422;7.738;2023-02-03T17:19:18;6.40;;;3.17;;
54145;SDS011;65909;49.422;7.738;2023-02-03T17:21:44;3.95;;;2.78;;
54145;SDS011;65909;49.422;7.738;2023-02-03T17:24:09;5.65;;;3.65;;
54145;SDS011;65909;49.422;7.738;2023-02-03T17:26:36;7.50;;;3.78;;
54145;SDS011;65909;49.422;7.738;2023-02-03T17:29:01;5.32;;;3.13;;
54145;SDS011;65909;49.422;7.738;2023-02-03T17:31:27;5.00;;;3.17;;
54145;SDS011;65909;49.422;7.738;2023-02-03T17:33:53;4.55;;;3.00;;
54145;SDS011;65909;49.422;7.738;2023-02-03T17:36:19;6.50;;;3.00;;
54145;SDS011;65909;49.422;7.738;2023-02-03T17:38:53;5.13;;;3.53;;
54145;SDS011;65909;49.422;7.738;2023-02-03T17:41:21;4.57;;;3.38;;
54145;SDS011;65909;49.422;7.738;2023-02-03T17:43:48;4.32;;;2.90;;
54145;SDS011;65909;49.422;7.738;2023-02-03T17:46:15;5.32;;;3.97;;